createdAt,value
2022-08-26T00:01:19.522Z,21.80
2022-08-26T00:03:56.381Z,21.80
2022-08-26T00:06:23.148Z,21.70
2022-08-26T00:08:49.895Z,21.70
2022-08-26T00:11:26.978Z,21.70
2022-08-26T00:13:55.888Z,21.70
2022-08-26T00:16:25.736Z,21.70
2022-08-26T00:18:53.155Z,21.70
2022-08-26T00:21:20.399Z,21.70
2022-08-26T00:23:47.684Z,21.70
2022-08-26T00:26:15.024Z,21.80
2022-08-26T00:28:41.860Z,21.70
2022-08-26T00:31:10.973Z,21.70
2022-08-26T00:33:39.156Z,21.70
2022-08-26T00:36:06.887Z,21.80
2022-08-26T00:38:34.928Z,21.70
2022-08-26T00:41:05.974Z,21.70
2022-08-26T00:43:46.318Z,21.70
2022-08-26T00:46:18.795Z,21.70
2022-08-26T00:48:49.842Z,21.70
2022-08-26T00:51:23.095Z,21.70
2022-08-26T00:53:54.990Z,21.80
2022-08-26T00:56:50.099Z,21.60
2022-08-26T00:59:17.891Z,21.70
2022-08-26T01:01:45.964Z,21.70
2022-08-26T01:04:17.123Z,21.70
2022-08-26T01:06:44.612Z,21.70
2022-08-26T01:09:11.808Z,21.60
2022-08-26T01:11:38.906Z,21.60
2022-08-26T01:14:07.544Z,21.60
2022-08-26T01:16:35.805Z,21.60
2022-08-26T01:19:20.575Z,21.70
2022-08-26T01:21:53.813Z,21.60
2022-08-26T01:24:20.566Z,21.60
2022-08-26T01:26:48.563Z,21.60
2022-08-26T01:29:19.079Z,21.60
2022-08-26T01:31:51.122Z,21.60
2022-08-26T01:34:25.116Z,21.60
2022-08-26T01:37:16.006Z,21.60
2022-08-26T01:39:44.379Z,21.60
2022-08-26T01:42:14.568Z,21.50
2022-08-26T01:44:52.772Z,21.50
2022-08-26T01:47:23.768Z,21.50
2022-08-26T01:49:53.607Z,21.50
2022-08-26T01:52:27.581Z,21.60
2022-08-26T01:54:57.222Z,21.50
2022-08-26T01:57:25.055Z,21.60
2022-08-26T01:59:55.816Z,21.60
2022-08-26T02:02:23.494Z,21.60
2022-08-26T02:04:57.199Z,21.60
2022-08-26T02:07:26.633Z,21.50
2022-08-26T02:09:53.946Z,21.50
2022-08-26T02:12:20.984Z,21.50
2022-08-26T02:14:53.144Z,21.50
2022-08-26T02:17:22.991Z,21.50
2022-08-26T02:19:50.391Z,21.50
2022-08-26T02:22:22.366Z,21.50
2022-08-26T02:25:00.611Z,21.50
2022-08-26T02:27:32.796Z,21.40
2022-08-26T02:30:31.904Z,21.50
2022-08-26T02:33:03.708Z,21.40
2022-08-26T02:35:33.452Z,21.40
2022-08-26T02:38:00.632Z,21.40
2022-08-26T02:40:31.400Z,21.40
2022-08-26T02:42:58.383Z,21.40
2022-08-26T02:45:28.829Z,21.30
2022-08-26T02:47:58.035Z,21.30
2022-08-26T02:50:26.839Z,21.30
2022-08-26T02:52:53.625Z,21.30
2022-08-26T02:55:20.524Z,21.30
2022-08-26T02:57:47.299Z,21.30
2022-08-26T03:00:15.293Z,21.30
2022-08-26T03:02:42.375Z,21.30
2022-08-26T03:05:10.063Z,21.30
2022-08-26T03:07:36.888Z,21.20
2022-08-26T03:10:08.192Z,21.30
2022-08-26T03:12:35.603Z,21.30
2022-08-26T03:15:02.383Z,21.20
2022-08-26T03:17:45.584Z,21.30
2022-08-26T03:20:13.685Z,21.30
2022-08-26T03:22:42.367Z,21.40
2022-08-26T03:25:11.963Z,21.30
2022-08-26T03:27:38.950Z,21.30
2022-08-26T03:30:25.064Z,21.30
2022-08-26T03:32:53.390Z,21.30
2022-08-26T03:35:20.559Z,21.40
2022-08-26T03:37:49.430Z,21.40
2022-08-26T03:40:16.415Z,21.40
2022-08-26T03:42:47.666Z,21.40
2022-08-26T03:45:16.502Z,21.40
2022-08-26T03:47:43.301Z,21.40
2022-08-26T03:50:14.049Z,21.40
2022-08-26T03:52:43.836Z,21.40
2022-08-26T03:55:11.600Z,21.40
2022-08-26T03:57:38.305Z,21.50
2022-08-26T04:00:08.537Z,21.50
2022-08-26T04:02:35.517Z,21.40
2022-08-26T04:05:02.899Z,21.50
2022-08-26T04:07:30.242Z,21.50
2022-08-26T04:09:59.136Z,21.50
2022-08-26T04:12:26.046Z,21.50
2022-08-26T04:14:53.995Z,21.40
2022-08-26T04:17:21.074Z,21.50
2022-08-26T04:19:54.704Z,21.40
2022-08-26T04:22:24.239Z,21.50
2022-08-26T04:24:52.240Z,21.50
2022-08-26T04:27:19.011Z,21.40
2022-08-26T04:29:46.539Z,21.40
2022-08-26T04:32:15.413Z,21.40
2022-08-26T04:34:43.561Z,21.40
2022-08-26T04:37:11.803Z,21.40
2022-08-26T04:39:38.515Z,21.40
2022-08-26T04:42:05.918Z,21.30
2022-08-26T04:44:35.999Z,21.30
2022-08-26T04:47:03.108Z,21.30
2022-08-26T04:49:35.344Z,21.30
2022-08-26T04:52:03.873Z,21.30
2022-08-26T04:54:31.593Z,21.30
2022-08-26T04:56:59.218Z,21.30
2022-08-26T04:59:25.952Z,21.30
2022-08-26T05:01:57.225Z,21.30
2022-08-26T05:04:23.984Z,21.30
2022-08-26T05:06:54.060Z,21.40
2022-08-26T05:09:23.633Z,21.40
2022-08-26T05:11:52.320Z,21.40
2022-08-26T05:14:20.715Z,21.40
2022-08-26T05:16:47.888Z,21.40
2022-08-26T05:19:18.890Z,21.40
2022-08-26T05:21:47.124Z,21.40
2022-08-26T05:24:14.320Z,21.40
2022-08-26T05:26:41.617Z,21.30
2022-08-26T05:29:11.313Z,21.40
2022-08-26T05:31:37.989Z,21.40
2022-08-26T05:34:04.744Z,21.40
2022-08-26T05:36:34.359Z,21.40
2022-08-26T05:39:03.080Z,21.40
2022-08-26T05:41:36.232Z,21.40
2022-08-26T05:44:06.367Z,21.40
2022-08-26T05:46:34.428Z,21.40
2022-08-26T05:49:01.675Z,21.40
2022-08-26T05:51:30.361Z,21.40
2022-08-26T05:53:57.600Z,21.40
2022-08-26T05:56:26.061Z,21.40
2022-08-26T05:58:53.299Z,21.40
2022-08-26T06:01:23.773Z,21.50
2022-08-26T06:03:52.869Z,21.40
2022-08-26T06:06:27.831Z,21.40
2022-08-26T06:08:59.027Z,21.40
2022-08-26T06:11:27.295Z,21.40
2022-08-26T06:13:57.107Z,21.30
2022-08-26T06:16:27.805Z,21.30
2022-08-26T06:18:54.792Z,21.40
2022-08-26T06:21:23.894Z,21.40
2022-08-26T06:24:11.646Z,21.40
2022-08-26T06:26:40.958Z,21.50
2022-08-26T06:29:09.955Z,21.50
2022-08-26T06:31:36.808Z,21.50
2022-08-26T06:34:09.878Z,21.40
2022-08-26T06:36:37.851Z,21.40
2022-08-26T06:39:10.759Z,21.40
2022-08-26T06:41:43.151Z,21.30
2022-08-26T06:44:16.426Z,21.40
2022-08-26T06:46:44.285Z,21.40
2022-08-26T06:49:12.331Z,21.50
2022-08-26T06:51:40.735Z,21.60
2022-08-26T06:54:08.014Z,21.70
2022-08-26T06:56:41.177Z,21.80
2022-08-26T06:59:10.096Z,21.90
2022-08-26T07:01:46.017Z,21.90
2022-08-26T07:04:15.679Z,21.90
2022-08-26T07:06:48.836Z,21.90
2022-08-26T07:09:16.727Z,21.90
2022-08-26T07:11:44.434Z,21.90
2022-08-26T07:14:11.378Z,21.80
2022-08-26T07:16:39.731Z,21.80
2022-08-26T07:19:11.131Z,21.80
2022-08-26T07:21:41.439Z,21.80
2022-08-26T07:24:11.038Z,21.80
2022-08-26T07:26:39.024Z,21.80
2022-08-26T07:29:12.305Z,21.90
2022-08-26T07:31:39.389Z,21.90
2022-08-26T07:34:09.259Z,22.00
2022-08-26T07:36:36.513Z,22.00
2022-08-26T07:39:03.654Z,22.00
2022-08-26T07:44:02.267Z,22.00
2022-08-26T07:46:31.231Z,22.00
2022-08-26T07:48:58.219Z,22.00
2022-08-26T07:51:25.987Z,22.10
2022-08-26T07:53:54.688Z,22.10
2022-08-26T07:56:22.934Z,22.10
2022-08-26T07:58:53.297Z,22.20
2022-08-26T08:01:21.863Z,22.10
2022-08-26T08:03:51.354Z,22.10
2022-08-26T08:06:27.230Z,22.10
2022-08-26T08:08:54.448Z,22.10
2022-08-26T08:11:21.323Z,22.00
2022-08-26T08:13:49.748Z,22.10
2022-08-26T08:16:28.151Z,22.10
2022-08-26T08:18:59.206Z,22.00
2022-08-26T08:21:26.843Z,22.00
2022-08-26T08:23:55.825Z,22.00
2022-08-26T08:26:24.171Z,22.00
2022-08-26T08:28:53.506Z,22.00
2022-08-26T08:31:56.759Z,22.00
2022-08-26T08:34:18.395Z,22.00
2022-08-26T08:36:46.253Z,22.00
2022-08-26T08:39:13.984Z,22.00
2022-08-26T08:41:44.916Z,22.10
2022-08-26T08:44:20.904Z,22.10
2022-08-26T08:46:54.185Z,22.00
2022-08-26T08:49:21.952Z,22.00
2022-08-26T08:51:54.249Z,22.10
2022-08-26T08:54:23.118Z,22.10
2022-08-26T08:57:02.206Z,22.10
2022-08-26T08:59:35.287Z,22.10
2022-08-26T09:02:33.657Z,22.10
2022-08-26T09:05:24.078Z,22.20
2022-08-26T09:07:58.696Z,22.30
2022-08-26T09:10:41.086Z,22.30
2022-08-26T09:13:16.870Z,22.30
2022-08-26T09:16:08.289Z,22.20
2022-08-26T09:18:59.563Z,22.20
2022-08-26T09:21:26.806Z,22.10
2022-08-26T09:23:55.797Z,22.10
2022-08-26T09:26:30.560Z,22.10
2022-08-26T09:29:04.675Z,22.00
2022-08-26T09:31:35.684Z,22.00
2022-08-26T09:34:17.570Z,22.10
2022-08-26T09:36:59.100Z,22.20
2022-08-26T09:39:27.728Z,22.20
2022-08-26T09:42:12.907Z,22.30
2022-08-26T09:45:06.413Z,22.50
2022-08-26T09:47:39.424Z,22.60
2022-08-26T09:50:30.874Z,22.50
2022-08-26T09:53:21.065Z,22.50
2022-08-26T09:56:12.099Z,22.40
2022-08-26T09:58:41.855Z,22.30
2022-08-26T10:01:26.666Z,22.20
2022-08-26T10:04:10.185Z,22.20
2022-08-26T10:06:44.255Z,22.30
2022-08-26T10:09:17.273Z,22.30
2022-08-26T10:11:51.924Z,22.30
2022-08-26T10:14:29.836Z,22.40
2022-08-26T10:17:14.360Z,22.40
2022-08-26T10:19:56.176Z,22.30
2022-08-26T10:23:03.230Z,22.30
2022-08-26T10:25:40.741Z,22.30
2022-08-26T10:28:20.656Z,22.30
2022-08-26T10:31:20.618Z,22.30
2022-08-26T10:33:58.822Z,22.40
2022-08-26T10:39:58.653Z,22.50
2022-08-26T10:43:11.133Z,22.60
2022-08-26T10:45:46.540Z,22.60
2022-08-26T10:48:18.264Z,22.60
2022-08-26T10:50:47.749Z,22.70
2022-08-26T10:53:27.156Z,22.80
2022-08-26T10:56:24.778Z,22.90
2022-08-26T10:59:28.929Z,22.90
2022-08-26T11:02:25.242Z,23.10
2022-08-26T11:05:04.577Z,23.30
2022-08-26T11:07:46.318Z,23.50
2022-08-26T11:10:18.934Z,23.70
2022-08-26T11:12:50.363Z,23.80
2022-08-26T11:15:20.229Z,24.00
2022-08-26T11:17:51.604Z,24.10
2022-08-26T11:20:39.329Z,24.20
2022-08-26T11:23:20.592Z,24.30
2022-08-26T11:25:57.354Z,24.30
2022-08-26T11:28:37.775Z,24.50
2022-08-26T11:31:10.241Z,24.60
2022-08-26T11:33:59.677Z,24.70
2022-08-26T11:36:47.636Z,24.80
2022-08-26T11:39:25.321Z,24.60
2022-08-26T11:41:55.416Z,24.50
2022-08-26T11:44:35.591Z,24.40
2022-08-26T11:47:03.058Z,24.40
2022-08-26T11:49:31.699Z,24.20
2022-08-26T11:52:21.969Z,24.20
2022-08-26T11:55:06.457Z,24.30
2022-08-26T11:57:39.692Z,24.30
2022-08-26T12:00:13.603Z,24.10
2022-08-26T12:02:42.037Z,23.90
2022-08-26T12:05:08.952Z,23.60
2022-08-26T12:07:35.847Z,23.50
2022-08-26T12:10:05.022Z,23.40
2022-08-26T12:12:36.133Z,23.40
2022-08-26T12:15:12.046Z,23.40
2022-08-26T12:17:39.887Z,23.40
2022-08-26T12:20:45.665Z,23.40
2022-08-26T12:23:29.806Z,23.50
2022-08-26T12:26:11.007Z,23.60
2022-08-26T12:28:51.692Z,23.70
2022-08-26T12:31:29.513Z,23.70
2022-08-26T12:33:59.127Z,23.70
2022-08-26T12:36:39.195Z,23.70
2022-08-26T12:39:14.786Z,23.60
2022-08-26T12:41:48.631Z,23.50
2022-08-26T12:44:42.273Z,23.50
2022-08-26T12:47:42.935Z,23.50
2022-08-26T12:50:32.135Z,23.50
2022-08-26T12:53:19.919Z,23.50
2022-08-26T12:55:53.936Z,23.50
2022-08-26T12:58:31.474Z,23.40
2022-08-26T13:01:04.355Z,23.30
2022-08-26T13:03:34.046Z,23.30
2022-08-26T13:06:22.145Z,23.50
2022-08-26T13:09:07.793Z,23.70
2022-08-26T13:11:53.044Z,24.10
2022-08-26T13:14:24.295Z,24.30
2022-08-26T13:16:51.853Z,24.50
2022-08-26T13:19:21.852Z,24.60
2022-08-26T13:21:52.774Z,24.80
2022-08-26T13:24:35.644Z,24.90
2022-08-26T13:27:03.723Z,24.90
2022-08-26T13:29:30.395Z,24.80
2022-08-26T13:31:58.826Z,24.70
2022-08-26T13:34:26.843Z,24.60
2022-08-26T13:36:56.173Z,24.60
2022-08-26T13:39:24.043Z,24.40
2022-08-26T13:41:51.279Z,24.30
2022-08-26T13:44:18.395Z,24.20
2022-08-26T13:49:16.900Z,24.10
2022-08-26T13:51:43.643Z,24.00
2022-08-26T13:54:10.291Z,23.90
2022-08-26T13:56:37.327Z,23.80
2022-08-26T13:59:05.416Z,23.80
2022-08-26T14:01:35.152Z,23.70
2022-08-26T14:04:02.850Z,23.50
2022-08-26T14:06:29.941Z,23.30
2022-08-26T14:08:56.667Z,23.20
2022-08-26T14:11:24.767Z,23.00
2022-08-26T14:13:51.453Z,22.90
2022-08-26T14:16:33.094Z,22.80
2022-08-26T14:19:01.328Z,22.60
2022-08-26T14:21:33.431Z,22.60
2022-08-26T14:24:01.102Z,22.60
2022-08-26T14:26:29.765Z,22.70
2022-08-26T14:29:00.485Z,22.70
2022-08-26T14:31:29.584Z,22.70
2022-08-26T14:34:03.205Z,22.80
2022-08-26T14:36:32.058Z,22.90
2022-08-26T14:39:08.336Z,23.00
2022-08-26T14:41:40.882Z,23.00
2022-08-26T14:44:10.176Z,23.00
2022-08-26T14:46:49.392Z,23.00
2022-08-26T14:49:17.493Z,22.90
2022-08-26T14:51:44.290Z,22.90
2022-08-26T14:54:12.236Z,22.90
2022-08-26T14:57:03.678Z,22.90
2022-08-26T14:59:31.895Z,22.90
2022-08-26T15:01:59.098Z,22.80
2022-08-26T15:04:26.451Z,22.80
2022-08-26T15:06:54.720Z,22.80
2022-08-26T15:09:22.377Z,22.80
2022-08-26T15:11:50.308Z,22.90
2022-08-26T15:14:19.874Z,23.00
2022-08-26T15:16:51.910Z,23.10
2022-08-26T15:19:19.353Z,23.20
2022-08-26T15:21:46.979Z,23.20
2022-08-26T15:24:16.192Z,23.20
2022-08-26T15:26:44.032Z,23.20
2022-08-26T15:29:11.333Z,23.20
2022-08-26T15:31:38.084Z,23.10
2022-08-26T15:34:07.986Z,23.10
2022-08-26T15:36:37.136Z,23.00
2022-08-26T15:39:06.735Z,22.80
2022-08-26T15:41:35.018Z,22.70
2022-08-26T15:44:03.490Z,22.60
2022-08-26T15:46:31.389Z,22.60
2022-08-26T15:48:58.485Z,22.50
2022-08-26T15:51:31.623Z,22.60
2022-08-26T15:53:59.076Z,22.60
2022-08-26T15:56:27.175Z,22.60
2022-08-26T15:58:56.139Z,22.60
2022-08-26T16:01:27.504Z,22.70
2022-08-26T16:03:55.919Z,22.60
2022-08-26T16:06:31.323Z,22.70
2022-08-26T16:08:58.305Z,22.70
2022-08-26T16:11:25.651Z,22.80
2022-08-26T16:13:52.723Z,22.80
2022-08-26T16:16:21.239Z,22.80
2022-08-26T16:18:48.368Z,22.80
2022-08-26T16:21:17.416Z,22.70
2022-08-26T16:23:45.726Z,22.60
2022-08-26T16:26:15.780Z,22.50
2022-08-26T16:28:43.603Z,22.40
2022-08-26T16:31:11.117Z,22.40
2022-08-26T16:33:38.135Z,22.30
2022-08-26T16:36:05.739Z,22.30
2022-08-26T16:38:32.487Z,22.30
2022-08-26T16:41:00.513Z,22.20
2022-08-26T16:43:27.406Z,22.20
2022-08-26T16:45:54.093Z,22.10
2022-08-26T16:48:20.803Z,22.10
2022-08-26T16:50:47.458Z,22.10
2022-08-26T16:55:46.889Z,22.00
2022-08-26T16:58:14.564Z,22.00
2022-08-26T17:00:41.430Z,21.90
2022-08-26T17:03:08.453Z,21.90
2022-08-26T17:05:36.154Z,21.90
2022-08-26T17:08:03.339Z,21.80
2022-08-26T17:10:30.811Z,21.80
2022-08-26T17:12:57.892Z,21.80
2022-08-26T17:15:25.109Z,21.80
2022-08-26T17:17:52.970Z,21.80
2022-08-26T17:20:22.249Z,21.80
2022-08-26T17:22:50.908Z,21.80
2022-08-26T17:25:24.743Z,21.90
2022-08-26T17:27:51.992Z,21.80
2022-08-26T17:30:19.965Z,21.80
2022-08-26T17:32:47.220Z,21.70
2022-08-26T17:35:15.649Z,21.80
2022-08-26T17:37:42.683Z,21.70
2022-08-26T17:40:13.046Z,21.70
2022-08-26T17:42:40.320Z,21.70
2022-08-26T17:45:08.850Z,21.70
2022-08-26T17:47:35.967Z,21.70
2022-08-26T17:50:04.621Z,21.60
2022-08-26T17:52:31.923Z,21.60
2022-08-26T17:54:59.288Z,21.60
2022-08-26T17:57:27.017Z,21.50
2022-08-26T17:59:54.331Z,21.50
2022-08-26T18:02:21.161Z,21.50
2022-08-26T18:04:48.210Z,21.40
2022-08-26T18:07:16.034Z,21.30
2022-08-26T18:09:43.490Z,21.30
2022-08-26T18:12:11.471Z,21.30
2022-08-26T18:14:38.564Z,21.20
2022-08-26T18:17:05.426Z,21.20
2022-08-26T18:19:32.233Z,21.20
2022-08-26T18:21:58.998Z,21.10
2022-08-26T18:24:28.526Z,21.10
2022-08-26T18:26:55.210Z,21.00
2022-08-26T18:29:22.015Z,21.00
2022-08-26T18:31:49.503Z,21.00
2022-08-26T18:34:16.820Z,21.00
2022-08-26T18:36:43.922Z,21.00
2022-08-26T18:39:12.004Z,20.90
2022-08-26T18:41:44.878Z,20.90
2022-08-26T18:44:13.864Z,20.90
2022-08-26T18:46:40.903Z,20.90
2022-08-26T18:49:08.244Z,20.90
2022-08-26T18:51:35.558Z,20.90
2022-08-26T18:54:05.354Z,20.80
2022-08-26T18:56:33.578Z,20.80
2022-08-26T18:59:00.682Z,20.80
2022-08-26T19:01:29.684Z,20.80
2022-08-26T19:03:58.093Z,20.80
2022-08-26T19:06:25.793Z,20.80
2022-08-26T19:08:53.275Z,20.80
2022-08-26T19:11:31.319Z,20.80
2022-08-26T19:13:58.570Z,20.70
2022-08-26T19:16:26.880Z,20.70
2022-08-26T19:18:54.375Z,20.70
2022-08-26T19:21:22.334Z,20.70
2022-08-26T19:23:49.828Z,20.60
2022-08-26T19:26:16.611Z,20.60
2022-08-26T19:28:43.519Z,20.50
2022-08-26T19:31:11.670Z,20.50
2022-08-26T19:33:42.961Z,20.40
2022-08-26T19:36:15.163Z,20.40
2022-08-26T19:38:42.744Z,20.40
2022-08-26T19:41:14.837Z,20.20
2022-08-26T19:43:41.896Z,20.20
2022-08-26T19:46:10.951Z,20.10
2022-08-26T19:48:37.651Z,20.10
2022-08-26T19:51:04.417Z,20.10
2022-08-26T19:53:31.623Z,20.10
2022-08-26T19:55:58.279Z,20.10
2022-08-26T19:58:24.952Z,20.00
2022-08-26T20:00:51.665Z,20.00
2022-08-26T20:03:18.380Z,19.90
2022-08-26T20:05:45.018Z,19.90
2022-08-26T20:08:21.862Z,19.80
2022-08-26T20:10:50.078Z,19.70
2022-08-26T20:13:17.282Z,19.70
2022-08-26T20:15:44.327Z,19.70
2022-08-26T20:18:29.520Z,19.70
2022-08-26T20:21:15.582Z,19.70
2022-08-26T20:23:43.547Z,19.70
2022-08-26T20:26:10.255Z,19.70
2022-08-26T20:28:36.959Z,19.70
2022-08-26T20:31:03.722Z,19.80
2022-08-26T20:33:31.562Z,19.80
2022-08-26T20:36:13.862Z,19.80
2022-08-26T20:38:41.184Z,19.90
2022-08-26T20:41:07.856Z,19.90
2022-08-26T20:43:34.598Z,19.90
2022-08-26T20:46:01.527Z,19.90
2022-08-26T20:48:28.337Z,19.90
2022-08-26T20:50:59.122Z,19.90
2022-08-26T20:53:26.875Z,19.90
2022-08-26T20:55:54.950Z,19.90
2022-08-26T20:58:23.971Z,19.90
2022-08-26T21:00:50.786Z,19.90
2022-08-26T21:03:17.462Z,19.90
2022-08-26T21:05:44.187Z,19.90
2022-08-26T21:08:11.619Z,19.80
2022-08-26T21:10:39.232Z,19.80
2022-08-26T21:13:06.536Z,19.80
2022-08-26T21:15:33.884Z,19.70
2022-08-26T21:18:00.993Z,19.70
2022-08-26T21:20:27.655Z,19.70
2022-08-26T21:22:54.300Z,19.70
2022-08-26T21:25:21.215Z,19.70
2022-08-26T21:27:47.965Z,19.70
2022-08-26T21:30:15.796Z,19.80
2022-08-26T21:32:42.784Z,19.80
2022-08-26T21:35:09.890Z,19.80
2022-08-26T21:37:36.510Z,19.80
2022-08-26T21:40:05.402Z,19.80
2022-08-26T21:42:33.987Z,19.80
2022-08-26T21:45:01.503Z,19.70
2022-08-26T21:47:28.480Z,19.70
2022-08-26T21:49:55.159Z,19.70
2022-08-26T21:52:22.016Z,19.70
2022-08-26T21:54:49.511Z,19.70
2022-08-26T21:57:16.940Z,19.70
2022-08-26T21:59:43.592Z,19.70
2022-08-26T22:02:11.098Z,19.70
2022-08-26T22:04:37.822Z,19.60
2022-08-26T22:07:04.899Z,19.60
2022-08-26T22:09:32.236Z,19.60
2022-08-26T22:12:00.494Z,19.60
2022-08-26T22:14:30.652Z,19.70
2022-08-26T22:16:58.955Z,19.70
2022-08-26T22:19:26.554Z,19.70
2022-08-26T22:21:55.110Z,19.70
2022-08-26T22:24:24.082Z,19.70
2022-08-26T22:26:51.665Z,19.70
2022-08-26T22:29:19.059Z,19.70
2022-08-26T22:31:46.286Z,19.70
2022-08-26T22:34:16.983Z,19.70
2022-08-26T22:36:45.814Z,19.70
2022-08-26T22:39:13.967Z,19.70
2022-08-26T22:41:42.903Z,19.70
2022-08-26T22:44:11.499Z,19.70
2022-08-26T22:46:38.574Z,19.70
2022-08-26T22:49:06.358Z,19.70
2022-08-26T22:51:33.211Z,19.70
2022-08-26T22:54:00.496Z,19.70
2022-08-26T22:56:27.304Z,19.70
2022-08-26T22:58:54.019Z,19.70
2022-08-26T23:01:20.775Z,19.70
2022-08-26T23:03:47.637Z,19.70
2022-08-26T23:06:14.387Z,19.60
2022-08-26T23:08:41.920Z,19.60
2022-08-26T23:11:10.205Z,19.60
2022-08-26T23:13:36.899Z,19.60
2022-08-26T23:16:07.262Z,19.50
2022-08-26T23:18:33.939Z,19.50
2022-08-26T23:21:00.987Z,19.50
2022-08-26T23:23:27.755Z,19.50
2022-08-26T23:25:55.451Z,19.50
2022-08-26T23:28:23.360Z,19.50
2022-08-26T23:30:50.297Z,19.50
2022-08-26T23:33:17.023Z,19.60
2022-08-26T23:35:43.773Z,19.50
2022-08-26T23:38:12.861Z,19.50
2022-08-26T23:40:41.834Z,19.50
2022-08-26T23:43:11.338Z,19.50
2022-08-26T23:45:38.571Z,19.50
2022-08-26T23:48:05.946Z,19.50
2022-08-26T23:50:52.984Z,19.50
2022-08-26T23:53:22.073Z,19.60
2022-08-26T23:55:51.181Z,19.60
2022-08-26T23:58:19.672Z,19.60
